KRWF/RWF METAR and TAF weather

Enter ICAO airport designator
Station Type Date Time Source
KRWF METAR 2020/07/10 22:53 UTC NOAA

KRWF 102253Z AUTO 19006KT 10SM BKN060 28/18 A2995 RMK AO2 SLP137 T02780183


Station Type Date Time Source
KRWF Decoded METAR 2020/07/10 22:53 UTC NOAA

REDWOOD FALLS MUNICIPAL, MN, United States (KRWF) 44-33N 95-05W 311M
Jul 10, 2020 - 06:53 PM EDT / 2020.07.10 2253 UTC
Wind: from the S (190 degrees) at 7 MPH (6 KT):0
Visibility: 10 mile(s):0
Sky conditions: mostly cloudy
Temperature: 82.0 F (27.8 C)
Dew Point: 64.9 F (18.3 C)
Relative Humidity: 56%
Pressure (altimeter): 29.95 in. Hg (1014 hPa)
ob: KRWF 102253Z AUTO 19006KT 10SM BKN060 28/18 A2995 RMK AO2 SLP137 T02780183
cycle: 23

Station Type Date Time Source
KRWF TAF 2020/07/10 18:42 UTC NOAA

TAF KRWF 101739Z 1018/1118 31007KT P6SM FEW250
FM110300 01005KT P6SM SCT060 BKN150
FM110800 VRB04KT 6SM -SHRA SCT040 BKN070
TEMPO 1108/1112 3SM -TSRA BR BKN040CB

Example: see airport list